Time;durP1;ratioP1;P1;durP2;ratioP2;P2;SDS_P1;SDS_P2;PMS_P1;PMS_P2;Temp;Humidity;BMP_temperature;BMP_pressure;BME280_temperature;BME280_humidity;BME280_pressure;Samples;Min_cycle;Max_cycle;Signal;HPM_P1;HPM_P2
2022/11/11 00:00:28;;;;;;;7.43;1.70;;;12.60;95.70;;;;;;5071833;28;20035;-71
2022/11/11 00:02:58;;;;;;;9.38;1.63;;;12.60;95.80;;;;;;5072450;28;20016;-71
2022/11/11 00:05:24;;;;;;;6.03;1.40;;;12.60;95.80;;;;;;5071836;28;20051;-71
2022/11/11 00:07:59;;;;;;;6.20;1.85;;;12.60;96.00;;;;;;5071881;28;20048;-71
2022/11/11 00:10:26;;;;;;;7.18;1.70;;;12.60;96.00;;;;;;5071618;28;20036;-72
2022/11/11 00:12:52;;;;;;;6.38;1.60;;;12.50;96.00;;;;;;5070981;28;20029;-71
2022/11/11 00:15:18;;;;;;;7.78;1.85;;;12.50;96.00;;;;;;5071644;28;20339;-71
2022/11/11 00:26:09;;;;;;;4.25;1.27;;;12.30;96.20;;;;;;5071516;28;20439;-71
2022/11/11 00:28:35;;;;;;;5.18;1.50;;;12.30;96.30;;;;;;5071402;28;20032;-71
2022/11/11 00:31:09;;;;;;;5.03;1.55;;;12.30;96.50;;;;;;5070107;28;20116;-72
2022/11/11 00:33:34;;;;;;;3.83;1.05;;;12.20;96.50;;;;;;5071294;28;20036;-70
2022/11/11 00:36:00;;;;;;;7.85;1.80;;;12.20;96.70;;;;;;5071179;28;20082;-71
2022/11/11 00:38:44;;;;;;;4.03;1.27;;;12.10;96.60;;;;;;5071449;28;20067;-71
2022/11/11 00:41:28;;;;;;;6.13;1.60;;;12.10;96.60;;;;;;5070974;28;20028;-71
2022/11/11 00:43:54;;;;;;;5.05;1.40;;;12.00;96.50;;;;;;5071299;28;20361;-70
2022/11/11 00:51:48;;;;;;;6.25;2.08;;;12.00;96.70;;;;;;5070927;28;20094;-71
2022/11/11 00:54:14;;;;;;;8.75;2.22;;;11.90;96.80;;;;;;5070845;28;20028;-71
2022/11/11 00:56:40;;;;;;;7.80;1.65;;;11.80;96.90;;;;;;5071893;28;20029;-70
2022/11/11 00:59:07;;;;;;;4.93;1.27;;;11.80;97.00;;;;;;5070959;28;20458;-70
2022/11/11 01:01:34;;;;;;;7.87;1.53;;;11.80;96.90;;;;;;5070804;28;20025;-71
2022/11/11 01:04:00;;;;;;;3.67;1.05;;;11.80;96.80;;;;;;5070781;28;20457;-70
2022/11/11 01:06:26;;;;;;;6.32;2.00;;;11.70;96.90;;;;;;5070942;28;20075;-71
2022/11/11 01:08:52;;;;;;;4.70;1.10;;;11.70;97.00;;;;;;5053308;28;20086;-71
2022/11/11 01:11:20;;;;;;;5.72;1.40;;;11.70;97.00;;;;;;5070744;28;20040;-71
2022/11/11 01:13:46;;;;;;;;;;;11.60;97.20;;;;;;5071463;28;20127;-71
2022/11/11 01:16:15;;;;;;;7.28;1.60;;;11.60;97.20;;;;;;5070778;28;19995;-71
2022/11/11 01:18:41;;;;;;;4.90;1.40;;;11.60;97.30;;;;;;5052868;28;20139;-70
2022/11/11 01:21:13;;;;;;;4.57;1.35;;;11.50;97.30;;;;;;5070660;28;20100;-71
2022/11/11 01:23:40;;;;;;;6.78;1.65;;;11.50;97.40;;;;;;5071151;28;20396;-70
2022/11/11 01:26:14;;;;;;;5.78;1.50;;;11.40;97.50;;;;;;5074251;28;20047;-70
2022/11/11 01:28:40;;;;;;;5.28;1.45;;;11.40;97.40;;;;;;5074633;28;20056;-70
2022/11/11 01:31:09;;;;;;;4.53;1.20;;;11.40;97.40;;;;;;5074601;28;20044;-70
2022/11/11 01:33:35;;;;;;;7.32;1.42;;;11.30;97.20;;;;;;5074434;28;20032;-69
2022/11/11 01:36:13;;;;;;;6.93;2.08;;;11.40;97.30;;;;;;5074297;28;20431;-69
2022/11/11 01:38:41;;;;;;;4.60;1.43;;;11.30;97.40;;;;;;5074901;28;20043;-69
2022/11/11 01:43:52;;;;;;;7.32;1.40;;;11.30;97.90;;;;;;5074362;28;20042;-68
2022/11/11 01:46:23;;;;;;;4.78;1.25;;;11.20;97.40;;;;;;5074351;28;20355;-69
2022/11/11 01:51:56;;;;;;;5.60;1.40;;;11.20;97.40;;;;;;5074639;28;20061;-70
2022/11/11 01:54:25;;;;;;;7.82;1.23;;;11.10;97.60;;;;;;5074171;28;20032;-71
2022/11/11 01:57:17;;;;;;;5.82;1.75;;;11.10;97.70;;;;;;5074684;28;20089;-69
2022/11/11 01:59:46;;;;;;;3.63;1.52;;;11.00;97.70;;;;;;5058271;28;20048;-70
2022/11/11 02:02:25;;;;;;;9.15;1.48;;;11.10;97.70;;;;;;5056444;28;20056;-69
2022/11/11 02:07:36;;;;;;;5.05;1.58;;;11.10;97.60;;;;;;5073842;28;20100;-71
2022/11/11 02:10:06;;;;;;;4.07;1.30;;;11.10;97.40;;;;;;5073962;28;20032;-70
2022/11/11 02:15:16;;;;;;;6.13;0.95;;;11.10;97.60;;;;;;5073825;28;20162;-69
2022/11/11 02:17:42;;;;;;;6.50;1.15;;;11.10;97.60;;;;;;5074400;28;20107;-69
2022/11/11 02:20:09;;;;;;;4.88;1.35;;;11.10;97.60;;;;;;5076106;28;20085;-69
2022/11/11 02:22:57;;;;;;;5.43;1.00;;;11.00;97.60;;;;;;5073991;28;20449;-70
2022/11/11 02:25:25;;;;;;;;;;;11.00;97.80;;;;;;5056358;28;20270;-69
2022/11/11 02:27:52;;;;;;;9.73;1.80;;;11.00;97.80;;;;;;5073601;28;19913;-69
2022/11/11 02:30:20;;;;;;;4.55;1.08;;;11.00;97.90;;;;;;5055557;28;20185;-69
2022/11/11 02:32:50;;;;;;;;;;;11.00;97.90;;;;;;5074367;28;20108;-70
2022/11/11 02:35:19;;;;;;;5.20;1.40;;;10.90;97.80;;;;;;5076391;28;20061;-70
2022/11/11 02:37:48;;;;;;;5.32;1.15;;;10.90;97.90;;;;;;5093547;28;20033;-72
2022/11/11 02:40:18;;;;;;;3.05;0.80;;;10.80;98.00;;;;;;5093667;28;20028;-70
2022/11/11 02:42:44;;;;;;;7.80;1.60;;;10.80;97.90;;;;;;5075711;28;20127;-69
2022/11/11 02:45:10;;;;;;;2.80;1.20;;;10.90;97.90;;;;;;5093613;28;20091;-71
2022/11/11 02:47:35;;;;;;;4.63;0.88;;;10.80;98.00;;;;;;5093935;28;20059;-70
2022/11/11 02:50:01;;;;;;;3.13;1.20;;;10.70;98.00;;;;;;5093649;28;20040;-71
2022/11/11 02:52:27;;;;;;;5.60;1.30;;;10.80;98.00;;;;;;5093823;28;20460;-69
2022/11/11 02:54:53;;;;;;;5.22;1.08;;;10.80;98.00;;;;;;5093342;28;20057;-69
2022/11/11 02:57:18;;;;;;;2.90;1.05;;;10.70;98.00;;;;;;5093308;28;20046;-70
2022/11/11 02:59:44;;;;;;;3.13;1.00;;;10.70;98.10;;;;;;5093867;28;20433;-70
2022/11/11 03:02:10;;;;;;;4.18;1.05;;;10.80;98.10;;;;;;5093256;28;20028;-70
2022/11/11 03:04:37;;;;;;;4.47;1.20;;;10.70;98.10;;;;;;5093275;28;20469;-70
2022/11/11 03:07:03;;;;;;;10.15;1.45;;;10.70;98.10;;;;;;5092951;28;20028;-70
2022/11/11 03:09:29;;;;;;;6.20;1.45;;;10.70;98.20;;;;;;5092985;28;20036;-69
2022/11/11 03:11:54;;;;;;;5.30;1.08;;;10.70;98.10;;;;;;5093784;28;20039;-69
2022/11/11 03:14:20;;;;;;;5.82;1.23;;;10.70;97.90;;;;;;5075069;28;20054;-70
2022/11/11 03:19:31;;;;;;;3.83;1.02;;;10.70;97.90;;;;;;5092927;28;20144;-70
2022/11/11 03:21:57;;;;;;;4.22;0.88;;;10.70;97.70;;;;;;5074788;28;20040;-70
2022/11/11 03:24:24;;;;;;;4.60;1.38;;;10.80;97.70;;;;;;5074602;28;20033;-70
2022/11/11 03:26:49;;;;;;;3.58;0.90;;;10.80;97.60;;;;;;5093214;28;20020;-70
2022/11/11 03:29:15;;;;;;;8.45;1.35;;;10.90;97.70;;;;;;5093049;28;20101;-70
2022/11/11 03:31:41;;;;;;;3.60;1.33;;;10.90;97.50;;;;;;5092814;28;20527;-72
2022/11/11 03:34:19;;;;;;;2.47;1.08;;;11.00;97.40;;;;;;5074860;28;20050;-70
2022/11/11 03:39:29;;;;;;;8.35;1.75;;;11.10;97.20;;;;;;5092481;28;20036;-71
2022/11/11 03:41:56;;;;;;;4.93;1.23;;;11.00;97.20;;;;;;5092761;28;20032;-70
2022/11/11 03:44:22;;;;;;;6.50;1.30;;;11.10;97.00;;;;;;5092398;28;20032;-70
2022/11/11 03:46:48;;;;;;;3.92;1.13;;;11.20;97.40;;;;;;5091642;28;20493;-71
2022/11/11 03:49:13;;;;;;;7.35;1.05;;;11.20;96.90;;;;;;5092119;28;20047;-72
2022/11/11 03:51:39;;;;;;;4.97;1.20;;;11.20;97.00;;;;;;5092329;28;20031;-69
2022/11/11 03:54:04;;;;;;;4.70;1.20;;;11.30;96.80;;;;;;5091266;28;20108;-70
2022/11/11 03:56:30;;;;;;;6.00;1.38;;;11.30;96.80;;;;;;5074659;28;20016;-70
2022/11/11 03:58:56;;;;;;;5.75;1.77;;;11.40;96.80;;;;;;5091990;28;20481;-70
2022/11/11 04:12:21;;;;;;;6.55;1.48;;;11.50;96.40;;;;;;5091688;28;20418;-69
2022/11/11 04:17:31;;;;;;;5.53;1.40;;;11.60;96.30;;;;;;5091720;28;20080;-70
2022/11/11 04:22:41;;;;;;;2.97;0.82;;;11.60;96.20;;;;;;5091731;28;20042;-70
2022/11/11 04:29:27;;;;;;;6.47;1.20;;;11.60;96.30;;;;;;5091883;28;20040;-70
2022/11/11 04:30:42;;;;;;;6.35;1.27;;;11.70;96.30;;;;;;5091453;28;20066;-70
2022/11/11 04:33:08;;;;;;;4.40;1.27;;;11.70;96.20;;;;;;5091329;28;20381;-70
2022/11/11 04:35:34;;;;;;;5.35;1.83;;;11.70;96.10;;;;;;5073998;28;20158;-71
2022/11/11 04:41:13;;;;;;;5.95;1.45;;;11.70;96.20;;;;;;5036131;28;20419;-70
2022/11/11 04:46:22;;;;;;;4.85;1.48;;;11.80;96.10;;;;;;5091234;28;20197;-69
2022/11/11 04:48:48;;;;;;;5.07;1.10;;;11.80;96.10;;;;;;5073307;28;20542;-70
2022/11/11 04:51:14;;;;;;;7.63;1.33;;;11.90;96.10;;;;;;5073489;28;20024;-69
2022/11/11 04:53:39;;;;;;;6.18;1.42;;;11.80;96.00;;;;;;5091684;28;20445;-69
2022/11/11 04:59:14;;;;;;;3.70;1.33;;;11.80;96.00;;;;;;5090851;28;20104;-70
2022/11/11 05:04:21;;;;;;;8.25;1.80;;;11.90;96.00;;;;;;5091030;28;20085;-69
2022/11/11 05:09:30;;;;;;;1.77;1.02;;;11.80;95.90;;;;;;5090938;28;20101;-71
2022/11/11 05:11:56;;;;;;;6.97;1.70;;;11.80;96.00;;;;;;5073438;28;20032;-71
2022/11/11 05:22:41;;;;;;;2.50;1.35;;;11.70;96.40;;;;;;5090822;28;20469;-70
2022/11/11 05:25:24;;;;;;;5.35;1.75;;;11.60;96.60;;;;;;5090653;28;20457;-70
2022/11/11 05:27:52;;;;;;;6.75;1.70;;;11.60;96.80;;;;;;5090806;28;20059;-69
2022/11/11 05:30:18;;;;;;;3.15;1.30;;;11.60;96.90;;;;;;5090785;28;20021;-70
2022/11/11 05:32:44;;;;;;;13.45;1.98;;;11.50;96.90;;;;;;5073096;28;20020;-69
2022/11/11 05:35:12;;;;;;;2.78;0.95;;;11.50;97.00;;;;;;5072803;28;20039;-70
2022/11/11 05:37:38;;;;;;;5.63;1.58;;;11.40;97.10;;;;;;5090667;28;20036;-70
2022/11/11 05:40:04;;;;;;;5.15;1.40;;;11.40;97.10;;;;;;5090629;28;20036;-71
2022/11/11 05:42:30;;;;;;;5.30;1.45;;;11.40;97.10;;;;;;5090064;28;20064;-69
2022/11/11 05:44:55;;;;;;;4.25;1.30;;;11.40;97.10;;;;;;5090870;28;20562;-70
2022/11/11 05:47:21;;;;;;;3.78;1.65;;;11.30;97.00;;;;;;5090351;28;20388;-69
2022/11/11 05:49:47;;;;;;;5.28;1.85;;;11.30;96.90;;;;;;5090391;28;20080;-69
2022/11/11 05:52:15;;;;;;;2.75;1.40;;;11.30;97.00;;;;;;5090309;28;20109;-70
2022/11/11 05:54:41;;;;;;;3.35;1.02;;;11.20;97.00;;;;;;5090530;28;20721;-70
2022/11/11 05:57:08;;;;;;;2.65;1.30;;;11.30;97.00;;;;;;5090544;28;20032;-69
2022/11/11 05:59:34;;;;;;;4.85;1.52;;;11.20;96.90;;;;;;5090709;28;20020;-70
2022/11/11 06:02:00;;;;;;;4.82;1.70;;;11.30;96.90;;;;;;5090396;28;20043;-70
2022/11/11 06:04:26;;;;;;;6.07;1.60;;;11.20;96.80;;;;;;5072279;28;20055;-70
2022/11/11 06:06:52;;;;;;;5.43;1.40;;;11.30;96.80;;;;;;5090435;28;20244;-70
2022/11/11 06:09:18;;;;;;;3.90;1.42;;;11.30;96.60;;;;;;5090228;28;20024;-69
2022/11/11 06:11:44;;;;;;;6.07;1.40;;;11.30;96.60;;;;;;5093151;28;20016;-69
2022/11/11 06:14:09;;;;;;;4.90;1.45;;;11.30;96.60;;;;;;5075922;28;20036;-69
2022/11/11 06:16:35;;;;;;;5.55;1.58;;;11.30;96.70;;;;;;5093755;28;20020;-70
2022/11/11 06:19:03;;;;;;;4.55;1.40;;;11.30;96.70;;;;;;5093728;28;20040;-70
2022/11/11 06:21:29;;;;;;;7.38;1.98;;;11.30;96.80;;;;;;5093837;28;20035;-70
2022/11/11 06:23:55;;;;;;;5.03;1.13;;;11.30;96.90;;;;;;5094136;28;20448;-70
2022/11/11 06:26:20;;;;;;;4.78;1.35;;;11.30;96.90;;;;;;5093688;28;20032;-71
2022/11/11 06:28:56;;;;;;;5.07;1.77;;;11.30;96.90;;;;;;5093591;28;20066;-71
2022/11/11 06:31:24;;;;;;;8.50;1.52;;;11.30;97.10;;;;;;5093809;28;20366;-71
2022/11/11 06:33:50;;;;;;;;;;;11.20;97.10;;;;;;5093250;28;20039;-70
2022/11/11 06:36:18;;;;;;;7.28;1.58;;;11.20;97.20;;;;;;5093615;28;19990;-69
2022/11/11 06:38:43;;;;;;;5.63;1.50;;;11.20;97.30;;;;;;5093880;28;20081;-70
2022/11/11 06:41:13;;;;;;;8.10;1.65;;;11.10;97.10;;;;;;5075425;28;20044;-71
2022/11/11 06:43:39;;;;;;;2.40;1.20;;;11.10;97.00;;;;;;5093499;28;20104;-70
2022/11/11 06:46:05;;;;;;;3.22;0.95;;;11.20;96.80;;;;;;5093454;28;20031;-71
2022/11/11 06:48:31;;;;;;;5.63;1.45;;;11.20;96.70;;;;;;5075931;28;20411;-70
2022/11/11 06:51:05;;;;;;;5.68;1.60;;;11.20;96.60;;;;;;5075825;28;20084;-70
2022/11/11 06:53:31;;;;;;;2.55;1.20;;;11.20;96.60;;;;;;5093510;28;20028;-70
2022/11/11 06:55:57;;;;;;;4.75;1.45;;;11.30;96.60;;;;;;5093509;28;20024;-70
2022/11/11 06:58:26;;;;;;;6.40;2.05;;;11.30;96.50;;;;;;5093460;28;20036;-71
2022/11/11 07:00:52;;;;;;;3.47;1.60;;;11.30;96.50;;;;;;5093691;28;20040;-71
2022/11/11 07:03:20;;;;;;;6.50;1.73;;;11.40;96.40;;;;;;5094458;28;20084;-70
2022/11/11 07:05:46;;;;;;;4.68;1.55;;;11.40;96.30;;;;;;5076035;28;20374;-71
2022/11/11 07:08:15;;;;;;;3.85;1.77;;;11.40;96.40;;;;;;5093302;28;20024;-71
2022/11/11 07:10:47;;;;;;;6.30;1.73;;;11.40;96.40;;;;;;5093453;28;20035;-73
2022/11/11 07:13:14;;;;;;;8.23;1.50;;;11.40;96.40;;;;;;5092989;28;20036;-73
2022/11/11 07:15:41;;;;;;;3.80;1.40;;;11.40;96.30;;;;;;5075430;28;20024;-72
2022/11/11 07:18:07;;;;;;;3.63;1.58;;;11.40;96.30;;;;;;5092532;28;20031;-73
2022/11/11 07:20:33;;;;;;;4.40;1.42;;;11.50;96.30;;;;;;5075222;28;20438;-73
2022/11/11 07:22:58;;;;;;;3.47;1.50;;;11.50;96.30;;;;;;5092618;28;20028;-71
2022/11/11 07:25:24;;;;;;;13.80;5.10;;;11.50;96.30;;;;;;5092720;28;20351;-74
2022/11/11 07:27:50;;;;;;;8.23;3.95;;;11.60;96.30;;;;;;5092788;28;20032;-73
2022/11/11 07:30:16;;;;;;;3.60;1.75;;;11.60;96.30;;;;;;5074793;28;20343;-73
2022/11/11 07:32:49;;;;;;;4.25;1.95;;;11.60;96.20;;;;;;5093200;28;20077;-73
2022/11/11 07:35:16;;;;;;;8.20;2.85;;;11.70;96.10;;;;;;5092869;28;20043;-72
2022/11/11 07:37:43;;;;;;;5.82;2.78;;;11.70;96.10;;;;;;5092959;28;20024;-74
2022/11/11 07:40:14;;;;;;;6.32;1.30;;;11.80;96.00;;;;;;5094071;28;20052;-74
2022/11/11 07:42:41;;;;;;;5.38;1.17;;;11.80;95.90;;;;;;5075734;28;20450;-74
2022/11/11 07:45:09;;;;;;;8.10;2.47;;;11.80;95.90;;;;;;5092313;28;20028;-74
2022/11/11 07:47:35;;;;;;;;;;;11.90;95.90;;;;;;5093597;28;20020;-71
2022/11/11 07:50:02;;;;;;;6.53;1.40;;;12.00;95.90;;;;;;5092178;28;19957;-72
2022/11/11 07:52:28;;;;;;;4.28;1.52;;;12.00;95.90;;;;;;5092634;28;20051;-73
2022/11/11 07:54:54;;;;;;;5.85;1.40;;;12.00;95.80;;;;;;5092994;28;20028;-74
2022/11/11 07:57:19;;;;;;;11.70;1.60;;;12.10;95.70;;;;;;5092105;28;20051;-73
2022/11/11 07:59:46;;;;;;;6.30;2.67;;;12.10;95.60;;;;;;5074618;28;20487;-72
2022/11/11 08:02:12;;;;;;;3.35;1.13;;;12.20;95.70;;;;;;5092026;28;20032;-72
2022/11/11 08:04:38;;;;;;;8.35;1.20;;;12.20;95.50;;;;;;5074210;28;20085;-74
2022/11/11 08:07:04;;;;;;;8.30;1.65;;;12.30;95.60;;;;;;5091754;28;20118;-74
2022/11/11 08:09:30;;;;;;;7.40;1.55;;;12.30;95.50;;;;;;5091906;28;20086;-74
2022/11/11 08:14:40;;;;;;;5.93;1.48;;;12.50;95.50;;;;;;5091996;28;20056;-74
2022/11/11 08:17:05;;;;;;;5.43;1.60;;;12.60;95.40;;;;;;5082963;28;20045;-75
2022/11/11 08:19:31;;;;;;;7.63;1.73;;;12.70;95.30;;;;;;5071353;28;20032;-73
2022/11/11 08:21:58;;;;;;;6.05;1.65;;;12.70;95.20;;;;;;5070380;28;20052;-72
2022/11/11 08:24:23;;;;;;;2.35;1.13;;;12.80;95.10;;;;;;5070182;28;20086;-72
2022/11/11 08:26:49;;;;;;;6.72;1.40;;;12.80;95.00;;;;;;5072045;28;20029;-71
2022/11/11 08:29:15;;;;;;;4.30;1.83;;;12.90;94.90;;;;;;5053335;28;20458;-71
2022/11/11 08:31:41;;;;;;;5.50;1.40;;;13.00;94.90;;;;;;5070906;28;20039;-71
2022/11/11 08:34:06;;;;;;;8.55;2.35;;;13.10;95.00;;;;;;5070446;28;20547;-71
2022/11/11 08:36:32;;;;;;;4.82;1.20;;;13.10;94.80;;;;;;5053083;28;20490;-72
2022/11/11 08:38:58;;;;;;;5.50;1.40;;;13.20;94.80;;;;;;5071372;28;20035;-74
2022/11/11 08:41:24;;;;;;;2.80;1.50;;;13.20;94.50;;;;;;5070492;28;20410;-73
2022/11/11 08:43:53;;;;;;;11.10;4.95;;;13.30;94.60;;;;;;5070617;28;20378;-75
2022/11/11 08:46:20;;;;;;;4.65;2.38;;;13.30;94.70;;;;;;5071247;28;20032;-75
2022/11/11 08:48:46;;;;;;;5.63;1.85;;;13.40;94.60;;;;;;5070656;28;20036;-74
2022/11/11 08:51:12;;;;;;;5.03;1.67;;;13.40;94.40;;;;;;5053078;28;20051;-74
2022/11/11 08:53:38;;;;;;;7.03;1.40;;;13.50;94.50;;;;;;5071266;28;20048;-74
2022/11/11 08:56:04;;;;;;;5.43;1.48;;;13.50;94.20;;;;;;5070403;28;20059;-74
2022/11/11 08:58:30;;;;;;;9.18;1.73;;;13.70;94.60;;;;;;5070532;28;20164;-74
2022/11/11 09:00:56;;;;;;;5.70;2.10;;;13.70;94.20;;;;;;5070514;28;20040;-73
2022/11/11 09:03:22;;;;;;;4.47;1.40;;;13.70;94.20;;;;;;5070902;28;20039;-72
2022/11/11 09:05:48;;;;;;;4.80;1.50;;;13.80;94.00;;;;;;5070911;28;20311;-73
2022/11/11 09:08:13;;;;;;;5.72;1.80;;;13.90;93.80;;;;;;5070453;28;20120;-72
2022/11/11 09:10:41;;;;;;;4.45;2.25;;;14.00;93.90;;;;;;5052862;28;20116;-73
2022/11/11 09:13:07;;;;;;;9.20;1.97;;;14.10;94.00;;;;;;5070456;28;20115;-73
2022/11/11 09:15:33;;;;;;;10.48;4.43;;;14.10;93.40;;;;;;5052682;28;20124;-71
2022/11/11 09:18:00;;;;;;;3.63;1.90;;;14.20;94.10;;;;;;5070856;28;20039;-72
2022/11/11 09:20:26;;;;;;;5.03;1.70;;;14.30;93.90;;;;;;5070330;28;20058;-72
2022/11/11 09:22:52;;;;;;;9.38;1.52;;;14.40;93.70;;;;;;5070469;28;20115;-71
2022/11/11 09:25:18;;;;;;;3.83;1.17;;;14.50;93.50;;;;;;5070690;28;20116;-73
2022/11/11 09:27:52;;;;;;;5.78;1.95;;;14.50;93.70;;;;;;5073436;28;20447;-71
2022/11/11 09:30:18;;;;;;;5.18;1.20;;;14.60;93.70;;;;;;5053403;28;20036;-73
2022/11/11 09:32:43;;;;;;;8.52;1.20;;;14.60;93.40;;;;;;5070876;28;20024;-73
2022/11/11 09:35:09;;;;;;;4.05;1.38;;;14.60;93.20;;;;;;5070430;28;20032;-73
2022/11/11 09:37:35;;;;;;;4.90;1.77;;;14.70;93.40;;;;;;5070117;28;20493;-73
2022/11/11 09:40:00;;;;;;;6.15;1.80;;;14.80;93.40;;;;;;5070270;28;20033;-73
2022/11/11 09:42:41;;;;;;;4.75;1.50;;;14.80;93.20;;;;;;5069271;28;20048;-74
2022/11/11 09:45:39;;;;;;;9.00;3.20;;;14.90;93.40;;;;;;5069476;28;20017;-74
2022/11/11 09:48:23;;;;;;;;;;;14.90;93.10;;;;;;5074582;28;20023;-75
2022/11/11 09:50:53;;;;;;;5.53;1.85;;;14.90;92.90;;;;;;5075147;28;19907;-73
2022/11/11 09:53:25;;;;;;;10.38;2.65;;;15.00;93.00;;;;;;5074105;28;20117;-73
2022/11/11 09:56:16;;;;;;;10.40;3.45;;;15.10;93.10;;;;;;5056259;28;20028;-73
2022/11/11 09:59:08;;;;;;;7.78;1.50;;;15.20;93.30;;;;;;5068801;28;20086;-73
2022/11/11 10:01:52;;;;;;;5.57;0.93;;;15.30;93.20;;;;;;5042999;28;20029;-73
2022/11/11 10:04:41;;;;;;;5.00;1.17;;;15.30;92.70;;;;;;5073973;28;20037;-75
2022/11/11 10:07:13;;;;;;;4.35;1.30;;;15.40;92.50;;;;;;5073782;28;20365;-74
2022/11/11 10:09:57;;;;;;;3.78;1.25;;;15.30;92.50;;;;;;5074387;28;20056;-73
2022/11/11 10:12:30;;;;;;;11.50;1.38;;;15.50;92.70;;;;;;5074726;28;20094;-74
2022/11/11 10:14:56;;;;;;;2.67;0.93;;;15.60;92.70;;;;;;5057234;28;20028;-72
2022/11/11 10:17:39;;;;;;;3.13;1.10;;;15.60;92.30;;;;;;5073496;28;20444;-73
2022/11/11 10:20:16;;;;;;;8.73;1.52;;;15.70;92.90;;;;;;5074589;28;20032;-72
2022/11/11 10:22:45;;;;;;;3.83;1.25;;;15.80;92.10;;;;;;5074075;28;20446;-73
2022/11/11 10:25:15;;;;;;;8.55;1.58;;;16.00;92.50;;;;;;5074337;28;20032;-73
2022/11/11 10:27:44;;;;;;;5.50;1.40;;;16.30;91.70;;;;;;5057170;28;20104;-75
2022/11/11 10:30:23;;;;;;;3.05;1.60;;;16.90;92.00;;;;;;5074463;28;20021;-74
2022/11/11 10:32:57;;;;;;;6.13;1.00;;;17.90;91.00;;;;;;5074180;28;20024;-73
2022/11/11 10:35:31;;;;;;;4.82;1.40;;;18.90;90.90;;;;;;5073774;28;20033;-74
2022/11/11 10:38:10;;;;;;;4.82;0.88;;;19.60;89.10;;;;;;5056149;28;20132;-74
2022/11/11 10:40:49;;;;;;;4.25;0.82;;;20.40;86.60;;;;;;5072771;28;20067;-74
2022/11/11 10:43:28;;;;;;;2.90;0.80;;;20.90;87.60;;;;;;5073249;28;20049;-71
2022/11/11 10:46:01;;;;;;;5.68;1.35;;;21.60;85.60;;;;;;5073670;28;20100;-73
2022/11/11 10:48:39;;;;;;;3.58;1.08;;;21.70;82.20;;;;;;5074446;28;20115;-72
2022/11/11 10:51:06;;;;;;;3.22;1.30;;;22.30;83.10;;;;;;5056595;28;20024;-75
2022/11/11 10:53:53;;;;;;;2.40;1.00;;;22.40;82.10;;;;;;5074698;28;20390;-72
2022/11/11 10:56:36;;;;;;;3.70;1.13;;;22.80;79.40;;;;;;5072634;28;20059;-71
2022/11/11 10:59:25;;;;;;;5.72;1.90;;;23.60;78.80;;;;;;5055711;28;20508;-71
2022/11/11 11:02:03;;;;;;;5.72;1.20;;;23.50;75.50;;;;;;5073085;28;20120;-74
2022/11/11 11:04:55;;;;;;;3.67;1.08;;;24.00;76.60;;;;;;5055050;28;20119;-75
2022/11/11 11:07:27;;;;;;;2.65;1.13;;;24.20;72.90;;;;;;5041503;28;20032;-74
2022/11/11 11:10:01;;;;;;;10.45;4.38;;;24.70;74.80;;;;;;5054748;28;20033;-75
2022/11/11 11:12:42;;;;;;;5.72;2.58;;;24.70;71.60;;;;;;5072445;28;20036;-76
2022/11/11 11:15:13;;;;;;;4.63;1.38;;;24.20;69.80;;;;;;5072374;28;20095;-75
2022/11/11 11:17:48;;;;;;;2.95;1.10;;;24.70;73.60;;;;;;5072923;28;20033;-75
2022/11/11 11:20:19;;;;;;;7.43;1.35;;;24.90;67.40;;;;;;5072321;28;20028;-74
2022/11/11 11:23:03;;;;;;;2.47;0.90;;;24.50;68.20;;;;;;5072136;28;20391;-77
2022/11/11 11:25:34;;;;;;;5.82;1.35;;;24.60;68.20;;;;;;5072151;28;20032;-75
2022/11/11 11:28:12;;;;;;;6.88;3.00;;;24.60;66.80;;;;;;5054307;28;20036;-72
2022/11/11 11:30:39;;;;;;;4.63;1.27;;;24.90;68.40;;;;;;5071346;28;20043;-73
2022/11/11 11:33:07;;;;;;;4.95;1.15;;;24.80;66.20;;;;;;5071785;28;20177;-72
2022/11/11 11:35:40;;;;;;;2.92;1.25;;;23.90;65.70;;;;;;5054596;28;20117;-70
2022/11/11 11:38:08;;;;;;;1.75;0.68;;;23.40;65.80;;;;;;5072311;28;20036;-71
2022/11/11 11:40:58;;;;;;;2.63;1.30;;;22.40;66.30;;;;;;5072765;28;20067;-70
2022/11/11 11:43:33;;;;;;;4.57;1.00;;;22.30;68.80;;;;;;5079971;28;20047;-69
2022/11/11 11:46:04;;;;;;;4.05;1.10;;;22.20;68.20;;;;;;5112359;28;20028;-70
2022/11/11 11:48:45;;;;;;;3.38;1.02;;;21.80;67.00;;;;;;5112131;28;20468;-69
2022/11/11 11:51:49;;;;;;;2.47;0.90;;;21.20;68.70;;;;;;5093967;28;20032;-70
2022/11/11 11:54:33;;;;;;;6.45;2.70;;;21.40;70.40;;;;;;5094078;28;20470;-71
2022/11/11 11:57:07;;;;;;;2.65;0.95;;;21.40;69.10;;;;;;5111944;28;20024;-70
2022/11/11 11:59:49;;;;;;;3.55;1.00;;;21.00;69.20;;;;;;5112238;28;20049;-69
2022/11/11 12:02:52;;;;;;;2.17;1.00;;;20.60;69.60;;;;;;5093708;28;20024;-69
2022/11/11 12:05:34;;;;;;;5.00;1.15;;;20.70;70.90;;;;;;5111790;28;20341;-69
2022/11/11 12:08:10;;;;;;;2.75;0.88;;;20.70;71.30;;;;;;5110902;28;20040;-70
2022/11/11 12:10:51;;;;;;;4.25;1.00;;;20.80;71.40;;;;;;5111581;28;20083;-70
2022/11/11 12:13:42;;;;;;;3.80;1.08;;;20.80;71.90;;;;;;5111748;28;20027;-68
2022/11/11 12:16:07;;;;;;;3.13;0.77;;;20.60;71.20;;;;;;5112093;28;20034;-72
2022/11/11 12:19:19;;;;;;;3.65;2.00;;;20.50;71.40;;;;;;5112008;28;20035;-70
2022/11/11 12:22:09;;;;;;;3.42;1.45;;;20.50;71.50;;;;;;5112341;28;20043;-71
2022/11/11 12:25:12;;;;;;;5.07;1.05;;;20.40;70.90;;;;;;5114454;28;20042;-71
2022/11/11 12:27:45;;;;;;;2.53;0.88;;;20.40;72.70;;;;;;5111477;28;20464;-72
2022/11/11 12:30:17;;;;;;;2.22;0.90;;;20.40;71.50;;;;;;5111611;28;20051;-73
2022/11/11 12:33:12;;;;;;;3.45;0.77;;;20.30;71.40;;;;;;5112219;28;20085;-74
2022/11/11 12:35:45;;;;;;;4.22;0.82;;;20.40;71.70;;;;;;5093797;28;20039;-73
2022/11/11 12:38:50;;;;;;;4.70;1.42;;;20.30;70.90;;;;;;5111285;28;20031;-73
2022/11/11 12:41:37;;;;;;;5.13;1.25;;;20.30;71.50;;;;;;5092489;28;20459;-71
2022/11/11 12:44:09;;;;;;;10.70;1.25;;;20.20;71.70;;;;;;5093065;28;20031;-71
2022/11/11 12:46:53;;;;;;;2.67;1.10;;;20.10;71.10;;;;;;5111278;28;20020;-72
2022/11/11 12:49:42;;;;;;;3.22;0.95;;;20.10;71.50;;;;;;5110803;28;20036;-72
2022/11/11 12:52:16;;;;;;;5.03;0.88;;;19.90;70.60;;;;;;5093244;28;20027;-72
2022/11/11 12:55:05;;;;;;;1.73;0.68;;;20.00;71.30;;;;;;5092969;28;20031;-72
2022/11/11 12:58:16;;;;;;;1.83;0.95;;;20.10;71.00;;;;;;5099746;28;20035;-72
2022/11/11 13:01:11;;;;;;;2.10;1.10;;;19.90;70.50;;;;;;5069694;28;20041;-71
2022/11/11 13:03:51;;;;;;;2.10;0.80;;;19.80;70.40;;;;;;5111050;28;20317;-71
2022/11/11 13:06:23;;;;;;;2.05;0.90;;;19.70;70.40;;;;;;5092920;28;20039;-70
2022/11/11 13:09:17;;;;;;;2.22;0.80;;;19.80;71.10;;;;;;5111440;28;20028;-72
2022/11/11 13:12:07;;;;;;;1.90;0.90;;;19.60;69.50;;;;;;5110898;28;20035;-73
2022/11/11 13:14:55;;;;;;;2.15;0.77;;;19.20;70.10;;;;;;5111371;28;20043;-69
2022/11/11 13:17:21;;;;;;;;;;;19.40;71.60;;;;;;5111276;28;20031;-74
2022/11/11 13:20:04;;;;;;;5.68;1.33;;;19.60;72.60;;;;;;5112985;28;20246;-72
2022/11/11 13:22:31;;;;;;;4.90;1.55;;;19.60;71.90;;;;;;5117344;28;20063;-73
2022/11/11 13:25:00;;;;;;;2.37;1.10;;;19.50;71.30;;;;;;5117430;28;20039;-73
2022/11/11 13:27:49;;;;;;;4.85;1.77;;;19.50;71.10;;;;;;5099549;28;20036;-77
2022/11/11 13:30:34;;;;;;;3.80;1.52;;;19.40;70.40;;;;;;5118699;28;20062;-74
2022/11/11 13:33:22;;;;;;;4.88;1.25;;;19.50;71.60;;;;;;5118693;27;20487;-71
2022/11/11 13:35:57;;;;;;;30.58;14.23;;;19.60;71.80;;;;;;5117465;28;20042;-73
2022/11/11 13:38:32;;;;;;;5.22;1.95;;;19.60;70.90;;;;;;5118563;28;20364;-72
2022/11/11 13:41:01;;;;;;;4.18;0.95;;;19.50;71.00;;;;;;5100458;28;20031;-72
2022/11/11 13:43:35;;;;;;;2.75;1.05;;;19.30;69.50;;;;;;5118736;28;20054;-73
2022/11/11 13:46:04;;;;;;;2.42;0.80;;;19.20;71.70;;;;;;5099067;28;20039;-75
2022/11/11 13:48:42;;;;;;;0.68;0.50;;;19.30;70.80;;;;;;5117809;28;20484;-74
2022/11/11 13:51:26;;;;;;;2.40;0.85;;;19.10;71.30;;;;;;5118545;27;20023;-76
2022/11/11 13:53:52;;;;;;;2.40;0.70;;;19.10;71.30;;;;;;5119267;28;20031;-73
2022/11/11 13:56:38;;;;;;;1.23;0.50;;;19.10;71.60;;;;;;5118743;27;20398;-75
2022/11/11 13:59:05;;;;;;;4.47;0.90;;;19.20;70.90;;;;;;5117144;28;20024;-73
2022/11/11 14:01:36;;;;;;;3.22;0.70;;;19.20;70.70;;;;;;5099219;28;20051;-70
2022/11/11 14:04:07;;;;;;;2.08;0.70;;;19.30;72.00;;;;;;5123536;27;20042;-72
2022/11/11 14:06:33;;;;;;;2.25;1.10;;;19.30;71.90;;;;;;5100019;28;20049;-73
2022/11/11 14:08:59;;;;;;;5.25;1.10;;;19.30;71.70;;;;;;5118635;28;20409;-73
2022/11/11 14:11:25;;;;;;;4.68;2.33;;;19.20;69.50;;;;;;5117745;28;20047;-71
2022/11/11 14:13:52;;;;;;;8.60;4.35;;;19.20;70.60;;;;;;5116952;27;20023;-72
2022/11/11 14:16:41;;;;;;;5.50;1.50;;;19.10;71.30;;;;;;5098717;28;20392;-72
2022/11/11 14:19:19;;;;;;;2.70;0.65;;;19.10;71.50;;;;;;5090493;28;20035;-73
2022/11/11 14:21:51;;;;;;;5.80;1.48;;;19.10;70.20;;;;;;5116658;28;20028;-73
2022/11/11 14:24:42;;;;;;;13.27;8.23;;;19.10;72.30;;;;;;5098670;27;20246;-74